Irasville, Vermont
Current Conditions -  °F | °C
As of 10:51 PM on Sunday 23 Nov 2014 (Local Time) from KMPV Reporting Station
Overcast Overcast  
Wind Chill: 38°   Ceiling: 7500
Heat Index: 42°   Visibility: 10mi
Dew Point: 38°   Wind: 6mph
Humidity: 85%   Direction: 170°S
Pressure: 30.03"   Gusts: NA
Location:  44.1924°N, 72.8443°W
Report Text: KMPV 240351Z AUTO 17005KT 10SM OVC075 06/03 A3003 RMK AO2 SLP179 T00560033
Loading
Personal Weather Stations






























Interactive Weather Map New forecast layout! Learn more

10-Day Weather Forecast

Advertisements
Track Severe Weather on mobile